createdAt,value
2022-12-22T00:00:53.303Z,20.93
2022-12-22T00:03:38.585Z,22.03
2022-12-22T00:06:27.814Z,21.73
2022-12-22T00:09:13.096Z,21.03
2022-12-22T00:11:58.364Z,21.50
2022-12-22T00:14:43.672Z,22.73
2022-12-22T00:17:41.263Z,22.27
2022-12-22T00:20:31.471Z,21.80
2022-12-22T00:23:17.132Z,22.37
2022-12-22T00:26:02.343Z,21.90
2022-12-22T00:28:47.678Z,21.03
2022-12-22T00:31:33.580Z,21.83
2022-12-22T00:34:20.013Z,21.33
2022-12-22T00:37:05.425Z,22.50
2022-12-22T00:39:50.608Z,22.03
2022-12-22T00:42:35.971Z,20.93
2022-12-22T00:45:21.364Z,23.37
2022-12-22T00:48:06.608Z,20.97
2022-12-22T00:50:54.793Z,20.57
2022-12-22T00:53:40.641Z,21.33
2022-12-22T00:56:27.416Z,21.30
2022-12-22T00:59:15.902Z,20.70
2022-12-22T01:02:01.369Z,20.37
2022-12-22T01:04:46.545Z,20.17
2022-12-22T01:07:35.246Z,21.70
2022-12-22T01:10:20.448Z,19.90
2022-12-22T01:13:05.853Z,21.37
2022-12-22T01:15:51.416Z,20.97
2022-12-22T01:18:36.763Z,18.97
2022-12-22T01:21:22.493Z,19.03
2022-12-22T01:24:09.102Z,20.37
2022-12-22T01:26:54.389Z,19.50
2022-12-22T01:29:39.835Z,18.40
2022-12-22T01:32:27.606Z,17.57
2022-12-22T01:35:12.970Z,19.13
2022-12-22T01:37:58.353Z,19.17
2022-12-22T01:40:45.357Z,19.20
2022-12-22T01:43:38.562Z,18.20
2022-12-22T01:46:40.774Z,18.57
2022-12-22T01:49:28.693Z,19.03
2022-12-22T01:52:14.419Z,18.30
2022-12-22T01:54:59.599Z,18.17
2022-12-22T01:57:47.107Z,18.30
2022-12-22T02:00:32.864Z,19.13
2022-12-22T02:03:19.195Z,17.53
2022-12-22T02:06:20.001Z,18.20
2022-12-22T02:09:16.413Z,18.43
2022-12-22T02:12:16.270Z,17.77
2022-12-22T02:15:08.573Z,18.47
2022-12-22T02:17:58.706Z,19.90
2022-12-22T02:20:55.810Z,18.90
2022-12-22T02:24:06.800Z,17.97
2022-12-22T02:26:56.737Z,18.73
2022-12-22T02:29:47.576Z,18.27
2022-12-22T02:32:33.245Z,17.83
2022-12-22T02:35:18.728Z,18.27
2022-12-22T02:38:12.194Z,18.07
2022-12-22T02:41:06.830Z,16.53
2022-12-22T02:44:09.197Z,17.27
2022-12-22T02:47:02.098Z,16.70
2022-12-22T02:49:57.318Z,17.20
2022-12-22T02:52:49.331Z,17.67
2022-12-22T02:55:35.754Z,16.70
2022-12-22T02:58:20.926Z,17.37
2022-12-22T03:01:08.017Z,16.47
2022-12-22T03:03:53.606Z,17.17
2022-12-22T03:06:38.807Z,15.90
2022-12-22T03:09:24.238Z,16.00
2022-12-22T03:12:09.570Z,17.17
2022-12-22T03:14:54.989Z,14.73
2022-12-22T03:17:41.714Z,15.23
2022-12-22T03:20:27.935Z,16.70
2022-12-22T03:23:13.285Z,16.40
2022-12-22T03:25:54.089Z,16.60
2022-12-22T03:28:22.854Z,17.13
2022-12-22T03:30:56.078Z,16.60
2022-12-22T03:33:25.232Z,17.50
2022-12-22T03:35:52.952Z,14.73
2022-12-22T03:38:20.758Z,15.53
2022-12-22T03:40:48.831Z,16.87
2022-12-22T03:43:35.870Z,17.07
2022-12-22T03:46:24.151Z,16.83
2022-12-22T03:49:11.289Z,16.90
2022-12-22T03:51:42.589Z,17.10
2022-12-22T03:54:11.318Z,16.67
2022-12-22T03:56:39.451Z,16.23
2022-12-22T03:59:07.305Z,16.17
2022-12-22T04:01:39.768Z,16.97
2022-12-22T04:04:09.241Z,16.23
2022-12-22T04:06:36.952Z,16.53
2022-12-22T04:09:05.041Z,17.27
2022-12-22T04:11:50.119Z,16.43
2022-12-22T04:14:17.896Z,15.83
2022-12-22T04:16:45.857Z,16.37
2022-12-22T04:19:15.988Z,15.70
2022-12-22T04:21:44.323Z,14.90
2022-12-22T04:24:12.868Z,14.90
2022-12-22T04:26:41.239Z,14.47
2022-12-22T04:29:09.164Z,14.97
2022-12-22T04:31:36.878Z,14.07
2022-12-22T04:34:04.739Z,14.20
2022-12-22T04:36:33.825Z,15.10
2022-12-22T04:39:01.496Z,14.97
2022-12-22T04:41:29.119Z,15.03
2022-12-22T04:43:56.837Z,15.37
2022-12-22T04:46:24.665Z,16.00
2022-12-22T04:48:57.899Z,14.73
2022-12-22T04:51:28.111Z,14.60
2022-12-22T04:53:57.169Z,14.33
2022-12-22T04:56:24.850Z,15.30
2022-12-22T04:58:52.525Z,14.80
2022-12-22T05:01:20.618Z,13.63
2022-12-22T05:03:48.696Z,14.70
2022-12-22T05:06:16.865Z,13.97
2022-12-22T05:08:44.597Z,14.40
2022-12-22T05:11:13.740Z,13.00
2022-12-22T05:13:41.409Z,14.07
2022-12-22T05:16:11.628Z,12.87
2022-12-22T05:18:40.967Z,13.37
2022-12-22T05:21:11.831Z,12.77
2022-12-22T05:23:39.562Z,13.77
2022-12-22T05:26:07.281Z,12.47
2022-12-22T05:28:36.446Z,12.30
2022-12-22T05:31:05.643Z,12.17
2022-12-22T05:33:33.842Z,12.40
2022-12-22T05:36:01.608Z,12.80
2022-12-22T05:38:29.700Z,11.27
2022-12-22T05:41:03.488Z,12.07
2022-12-22T05:43:32.250Z,11.40
2022-12-22T05:46:04.274Z,11.97
2022-12-22T05:48:38.180Z,11.87
2022-12-22T05:51:07.451Z,11.20
2022-12-22T05:53:35.325Z,10.80
2022-12-22T05:56:03.007Z,10.60
2022-12-22T05:58:30.740Z,10.50
2022-12-22T06:00:59.226Z,10.23
2022-12-22T06:03:29.754Z,9.60
2022-12-22T06:05:58.175Z,10.50
2022-12-22T06:08:26.612Z,10.50
2022-12-22T06:10:55.640Z,9.33
2022-12-22T06:13:23.302Z,9.87
2022-12-22T06:15:51.136Z,9.53
2022-12-22T06:18:19.226Z,8.03
2022-12-22T06:20:48.394Z,8.30
2022-12-22T06:23:16.138Z,8.07
2022-12-22T06:25:43.953Z,8.17
2022-12-22T06:28:11.637Z,7.90
2022-12-22T06:30:39.348Z,8.03
2022-12-22T06:33:07.008Z,6.43
2022-12-22T06:35:34.678Z,6.70
2022-12-22T06:38:03.775Z,7.20
2022-12-22T06:40:31.493Z,8.10
2022-12-22T06:43:10.880Z,7.13
2022-12-22T06:45:40.856Z,7.07
2022-12-22T06:48:10.072Z,6.90
2022-12-22T06:50:37.978Z,7.30
2022-12-22T06:53:07.613Z,7.57
2022-12-22T06:55:35.394Z,7.00
2022-12-22T06:58:03.203Z,7.63
2022-12-22T07:00:31.151Z,6.80
2022-12-22T07:02:59.081Z,6.70
2022-12-22T07:05:27.193Z,6.57
2022-12-22T07:07:54.914Z,6.93
2022-12-22T07:10:44.016Z,7.37
2022-12-22T07:13:20.411Z,7.17
2022-12-22T07:15:57.268Z,7.43
2022-12-22T07:18:27.411Z,7.60
2022-12-22T07:20:55.372Z,7.47
2022-12-22T07:23:23.150Z,7.53
2022-12-22T07:25:52.221Z,7.53
2022-12-22T07:28:21.211Z,7.70
2022-12-22T07:30:50.175Z,8.37
2022-12-22T07:33:18.153Z,7.13
2022-12-22T07:35:46.008Z,8.23
2022-12-22T07:38:13.972Z,7.90
2022-12-22T07:40:42.771Z,7.77
2022-12-22T07:43:11.199Z,8.73
2022-12-22T07:45:39.442Z,7.60
2022-12-22T07:48:27.421Z,7.67
2022-12-22T07:50:54.974Z,7.77
2022-12-22T07:53:22.634Z,7.10
2022-12-22T07:55:50.337Z,7.10
2022-12-22T07:58:19.418Z,6.83
2022-12-22T08:00:47.935Z,6.30
2022-12-22T08:03:15.718Z,7.63
2022-12-22T08:05:44.507Z,5.50
2022-12-22T08:08:12.239Z,5.90
2022-12-22T08:10:39.949Z,6.40
2022-12-22T08:13:07.616Z,5.90
2022-12-22T08:15:38.004Z,5.23
2022-12-22T08:18:05.780Z,5.50
2022-12-22T08:20:33.433Z,5.70
2022-12-22T08:23:01.159Z,5.33
2022-12-22T08:25:28.895Z,4.43
2022-12-22T08:27:58.393Z,4.17
2022-12-22T08:30:26.302Z,3.93
2022-12-22T08:32:55.456Z,2.87
2022-12-22T08:35:23.785Z,3.17
2022-12-22T08:37:52.502Z,2.30
2022-12-22T08:40:23.770Z,2.57
2022-12-22T08:42:55.786Z,1.80
2022-12-22T08:45:23.546Z,2.40
2022-12-22T08:47:51.619Z,2.03
2022-12-22T08:50:20.937Z,2.17
2022-12-22T08:52:48.689Z,2.20
2022-12-22T08:55:16.581Z,1.83
2022-12-22T08:57:44.357Z,1.53
2022-12-22T09:00:13.504Z,1.20
2022-12-22T09:02:41.804Z,1.00
2022-12-22T09:05:10.144Z,1.10
2022-12-22T09:07:41.084Z,0.97
2022-12-22T09:10:10.583Z,1.33
2022-12-22T09:12:38.421Z,1.10
2022-12-22T09:15:08.700Z,1.00
2022-12-22T09:17:37.870Z,0.90
2022-12-22T09:20:06.863Z,0.90
2022-12-22T09:22:34.782Z,1.00
2022-12-22T09:25:03.904Z,0.97
2022-12-22T09:27:31.749Z,0.63
2022-12-22T09:29:59.545Z,0.70
2022-12-22T09:32:29.028Z,0.80
2022-12-22T09:34:56.819Z,1.00
2022-12-22T09:37:24.794Z,0.73
2022-12-22T09:39:52.798Z,0.70
2022-12-22T09:42:24.002Z,0.90
2022-12-22T09:44:52.905Z,0.70
2022-12-22T09:47:25.619Z,0.73
2022-12-22T09:49:57.239Z,0.80
2022-12-22T09:52:32.440Z,0.90
2022-12-22T09:55:00.229Z,0.60
2022-12-22T09:57:32.404Z,0.90
2022-12-22T10:00:07.928Z,0.80
2022-12-22T10:02:45.535Z,0.80
2022-12-22T10:05:28.263Z,0.80
2022-12-22T10:08:02.880Z,0.80
2022-12-22T10:10:32.284Z,0.70
2022-12-22T10:13:03.512Z,0.70
2022-12-22T10:15:37.178Z,0.50
2022-12-22T10:18:13.349Z,1.00
2022-12-22T10:20:41.445Z,0.70
2022-12-22T10:23:18.142Z,0.57
2022-12-22T10:28:59.190Z,0.70
2022-12-22T10:31:28.614Z,0.60
2022-12-22T10:33:58.604Z,0.90
2022-12-22T10:36:28.853Z,0.60
2022-12-22T10:39:01.420Z,0.70
2022-12-22T10:41:32.519Z,0.80
2022-12-22T10:44:05.153Z,0.87
2022-12-22T10:46:37.784Z,0.70
2022-12-22T10:49:24.081Z,0.60
2022-12-22T10:51:55.293Z,0.93
2022-12-22T10:54:29.392Z,0.70
2022-12-22T10:57:02.616Z,0.80
2022-12-22T10:59:32.137Z,1.00
2022-12-22T11:02:26.217Z,0.90
2022-12-22T11:04:55.333Z,0.80
2022-12-22T11:07:24.678Z,1.10
2022-12-22T11:09:52.525Z,0.80
2022-12-22T11:12:29.022Z,1.03
2022-12-22T11:15:04.141Z,0.87
2022-12-22T11:17:37.220Z,0.70
2022-12-22T11:20:33.324Z,1.23
2022-12-22T11:23:04.507Z,0.87
2022-12-22T11:25:41.604Z,0.80
2022-12-22T11:28:24.744Z,0.80
2022-12-22T11:31:08.169Z,0.67
2022-12-22T11:33:46.769Z,0.63
2022-12-22T11:36:26.539Z,0.50
2022-12-22T11:39:01.523Z,0.83
2022-12-22T11:41:43.953Z,0.90
2022-12-22T11:44:31.697Z,0.70
2022-12-22T11:47:07.003Z,0.60
2022-12-22T11:50:58.573Z,0.67
2022-12-22T11:53:07.492Z,0.70
2022-12-22T11:55:39.926Z,0.80
2022-12-22T11:58:25.254Z,0.80
2022-12-22T12:01:15.399Z,0.83
2022-12-22T12:04:22.097Z,0.50
2022-12-22T12:07:04.882Z,0.60
2022-12-22T12:09:43.280Z,0.60
2022-12-22T12:12:18.932Z,0.70
2022-12-22T12:14:54.634Z,0.70
2022-12-22T12:17:34.521Z,0.87
2022-12-22T12:20:19.153Z,0.50
2022-12-22T12:23:01.066Z,0.40
2022-12-22T12:25:38.061Z,0.50
2022-12-22T12:28:20.321Z,0.70
2022-12-22T12:30:54.883Z,0.60
2022-12-22T12:33:32.558Z,0.50
2022-12-22T12:36:08.330Z,0.50
2022-12-22T12:41:42.256Z,0.50
2022-12-22T12:44:14.057Z,0.47
2022-12-22T12:47:12.848Z,0.50
2022-12-22T12:49:57.266Z,0.50
2022-12-22T12:52:58.284Z,0.50
2022-12-22T12:55:33.694Z,0.63
2022-12-22T12:58:03.397Z,0.63
2022-12-22T13:00:50.835Z,0.40
2022-12-22T13:06:51.639Z,0.70
2022-12-22T13:09:49.359Z,0.60
2022-12-22T13:12:39.814Z,0.63
2022-12-22T13:15:32.990Z,0.40
2022-12-22T13:18:01.687Z,0.50
2022-12-22T13:20:32.101Z,0.70
2022-12-22T13:23:03.376Z,0.40
2022-12-22T13:25:41.941Z,0.50
2022-12-22T13:28:16.831Z,0.53
2022-12-22T13:30:48.167Z,0.60
2022-12-22T13:33:20.554Z,0.60
2022-12-22T13:35:52.262Z,0.60
2022-12-22T13:38:30.232Z,0.40
2022-12-22T13:40:59.726Z,0.60
2022-12-22T13:43:31.281Z,0.50
2022-12-22T13:46:02.072Z,0.30
2022-12-22T13:48:43.543Z,0.43
2022-12-22T13:51:19.205Z,0.47
2022-12-22T13:54:07.714Z,0.40
2022-12-22T13:56:39.905Z,0.50
2022-12-22T13:59:29.005Z,0.43
2022-12-22T14:02:02.732Z,0.50
2022-12-22T14:04:31.555Z,0.40
2022-12-22T14:07:11.379Z,0.70
2022-12-22T14:09:43.867Z,0.40
2022-12-22T14:12:15.837Z,0.50
2022-12-22T14:14:47.057Z,0.50
2022-12-22T14:17:23.793Z,0.40
2022-12-22T14:19:53.690Z,0.40
2022-12-22T14:22:24.889Z,0.50
2022-12-22T14:24:56.136Z,0.43
2022-12-22T14:27:32.894Z,0.43
2022-12-22T14:30:04.427Z,0.50
2022-12-22T14:32:38.103Z,0.50
2022-12-22T14:35:17.897Z,0.50
2022-12-22T14:37:45.587Z,0.50
2022-12-22T14:40:28.864Z,0.50
2022-12-22T14:42:57.575Z,0.70
2022-12-22T14:45:26.989Z,0.70
2022-12-22T14:47:56.264Z,0.70
2022-12-22T14:50:25.999Z,0.57
2022-12-22T14:52:55.995Z,0.40
2022-12-22T14:55:28.540Z,0.40
2022-12-22T14:58:00.250Z,0.50
2022-12-22T15:00:34.170Z,0.70
2022-12-22T15:03:04.659Z,0.50
2022-12-22T15:05:35.631Z,0.40
2022-12-22T15:08:08.883Z,0.30
2022-12-22T15:10:42.292Z,0.50
2022-12-22T15:13:17.393Z,0.40
2022-12-22T15:15:46.647Z,0.40
2022-12-22T15:18:16.348Z,0.60
2022-12-22T15:20:44.216Z,0.50
2022-12-22T15:23:14.774Z,0.53
2022-12-22T15:25:42.867Z,0.50
2022-12-22T15:28:11.021Z,0.40
2022-12-22T15:30:39.424Z,0.50
2022-12-22T15:33:14.323Z,0.80
2022-12-22T15:35:42.950Z,0.40
2022-12-22T15:38:14.850Z,0.80
2022-12-22T15:40:43.183Z,0.40
2022-12-22T15:43:22.693Z,0.50
2022-12-22T15:45:57.261Z,0.53
2022-12-22T15:48:30.194Z,0.47
2022-12-22T15:50:59.270Z,0.40
2022-12-22T15:53:27.459Z,0.50
2022-12-22T15:55:58.491Z,0.40
2022-12-22T15:58:28.990Z,0.60
2022-12-22T16:00:57.247Z,0.40
2022-12-22T16:03:26.483Z,0.50
2022-12-22T16:05:54.694Z,0.50
2022-12-22T16:08:28.511Z,0.70
2022-12-22T16:10:56.234Z,0.60
2022-12-22T16:13:26.877Z,0.50
2022-12-22T16:15:55.205Z,0.60
2022-12-22T16:18:22.997Z,0.70
2022-12-22T16:20:52.618Z,0.60
2022-12-22T16:23:23.356Z,0.50
2022-12-22T16:25:58.837Z,0.53
2022-12-22T16:28:28.933Z,0.70
2022-12-22T16:30:56.820Z,0.83
2022-12-22T16:33:24.539Z,0.60
2022-12-22T16:35:53.617Z,0.50
2022-12-22T16:38:21.715Z,0.60
2022-12-22T16:40:52.661Z,0.40
2022-12-22T16:46:15.063Z,0.80
2022-12-22T16:48:45.458Z,0.67
2022-12-22T16:51:18.742Z,0.50
2022-12-22T16:53:48.267Z,0.67
2022-12-22T16:56:19.078Z,0.60
2022-12-22T16:58:47.778Z,0.80
2022-12-22T17:01:26.124Z,0.80
2022-12-22T17:03:54.258Z,1.03
2022-12-22T17:06:23.907Z,0.87
2022-12-22T17:08:51.688Z,9.93
2022-12-22T17:11:23.618Z,2.03
2022-12-22T17:13:53.916Z,1.50
2022-12-22T17:16:23.754Z,0.90
2022-12-22T17:18:51.580Z,1.00
2022-12-22T17:21:21.414Z,0.80
2022-12-22T17:23:52.367Z,0.93
2022-12-22T17:26:23.885Z,1.67
2022-12-22T17:28:52.221Z,1.07
2022-12-22T17:31:22.161Z,1.90
2022-12-22T17:33:49.964Z,1.50
2022-12-22T17:36:27.136Z,1.13
2022-12-22T17:38:56.528Z,1.40
2022-12-22T17:41:24.260Z,3.50
2022-12-22T17:43:51.995Z,8.07
2022-12-22T17:46:21.321Z,1.50
2022-12-22T17:48:49.537Z,0.90
2022-12-22T17:51:19.478Z,1.10
2022-12-22T17:53:47.897Z,0.87
2022-12-22T17:56:22.459Z,0.80
2022-12-22T17:58:50.696Z,0.80
2022-12-22T18:01:27.230Z,1.00
2022-12-22T18:03:55.940Z,0.77
2022-12-22T18:06:26.412Z,0.70
2022-12-22T18:08:56.247Z,0.90
2022-12-22T18:11:26.087Z,0.63
2022-12-22T18:13:57.086Z,0.97
2022-12-22T18:16:24.879Z,0.87
2022-12-22T18:18:52.729Z,1.10
2022-12-22T18:21:23.811Z,1.00
2022-12-22T18:23:52.948Z,1.30
2022-12-22T18:26:23.907Z,1.10
2022-12-22T18:28:53.747Z,1.00
2022-12-22T18:31:22.663Z,1.53
2022-12-22T18:33:50.768Z,1.10
2022-12-22T18:36:20.820Z,1.53
2022-12-22T18:38:50.163Z,2.13
2022-12-22T18:41:22.635Z,1.80
2022-12-22T18:43:51.040Z,2.00
2022-12-22T18:46:20.617Z,2.10
2022-12-22T18:48:48.758Z,1.43
2022-12-22T18:51:20.580Z,2.03
2022-12-22T18:53:48.881Z,1.80
2022-12-22T18:56:16.668Z,2.30
2022-12-22T18:58:44.716Z,2.60
2022-12-22T19:01:18.976Z,3.20
2022-12-22T19:03:48.770Z,3.40
2022-12-22T19:06:18.795Z,3.43
2022-12-22T19:08:48.232Z,3.00
2022-12-22T19:11:17.590Z,2.73
2022-12-22T19:13:47.849Z,2.60
2022-12-22T19:16:19.303Z,2.43
2022-12-22T19:18:48.448Z,2.63
2022-12-22T19:21:17.556Z,2.63
2022-12-22T19:23:45.908Z,2.40
2022-12-22T19:26:22.085Z,2.70
2022-12-22T19:28:52.009Z,3.30
2022-12-22T19:31:24.072Z,2.90
2022-12-22T19:33:54.292Z,2.77
2022-12-22T19:36:25.767Z,2.50
2022-12-22T19:39:02.658Z,2.87
2022-12-22T19:41:42.909Z,2.87
2022-12-22T19:44:23.075Z,2.00
2022-12-22T19:46:52.310Z,2.20
2022-12-22T19:49:23.440Z,2.20
2022-12-22T19:51:51.405Z,1.60
2022-12-22T19:54:20.303Z,2.07
2022-12-22T19:56:52.088Z,1.67
2022-12-22T19:59:29.532Z,2.37
2022-12-22T20:01:59.418Z,1.97
2022-12-22T20:04:28.754Z,2.70
2022-12-22T20:06:56.482Z,2.83
2022-12-22T20:09:24.245Z,2.63
2022-12-22T20:11:51.995Z,2.67
2022-12-22T20:14:20.386Z,2.20
2022-12-22T20:16:48.197Z,3.63
2022-12-22T20:19:16.427Z,3.13
2022-12-22T20:21:45.764Z,2.80
2022-12-22T20:24:21.982Z,3.57
2022-12-22T20:26:54.441Z,3.37
2022-12-22T20:29:24.384Z,3.83
2022-12-22T20:31:52.426Z,3.33
2022-12-22T20:34:20.245Z,3.73
2022-12-22T20:36:49.514Z,5.20
2022-12-22T20:39:20.364Z,3.90
2022-12-22T20:41:52.861Z,2.87
2022-12-22T20:44:21.053Z,3.37
2022-12-22T20:46:49.463Z,2.40
2022-12-22T20:49:17.897Z,2.10
2022-12-22T20:51:46.709Z,2.77
2022-12-22T20:54:16.844Z,2.47
2022-12-22T20:56:49.335Z,2.63
2022-12-22T20:59:19.446Z,1.87
2022-12-22T21:01:53.957Z,2.80
2022-12-22T21:04:22.346Z,2.80
2022-12-22T21:06:52.414Z,2.00
2022-12-22T21:09:22.418Z,2.27
2022-12-22T21:11:51.745Z,1.87
2022-12-22T21:14:19.959Z,2.97
2022-12-22T21:16:49.843Z,1.80
2022-12-22T21:19:19.785Z,2.07
2022-12-22T21:21:48.317Z,2.10
2022-12-22T21:24:16.566Z,2.50
2022-12-22T21:26:53.006Z,2.13
2022-12-22T21:29:24.764Z,2.30
2022-12-22T21:31:55.305Z,2.07
2022-12-22T21:34:23.193Z,2.20
2022-12-22T21:37:00.494Z,2.63
2022-12-22T21:39:32.665Z,2.70
2022-12-22T21:42:03.879Z,2.57
2022-12-22T21:44:34.425Z,2.30
2022-12-22T21:47:03.620Z,2.53
2022-12-22T21:49:33.404Z,2.70
2022-12-22T21:52:03.934Z,2.67
2022-12-22T21:54:31.989Z,3.13
2022-12-22T21:57:04.697Z,3.57
2022-12-22T21:59:32.577Z,3.23
2022-12-22T22:02:00.559Z,2.40
2022-12-22T22:04:28.664Z,3.17
2022-12-22T22:06:56.705Z,2.37
2022-12-22T22:09:25.038Z,2.57
2022-12-22T22:12:12.699Z,2.00
2022-12-22T22:14:43.341Z,2.67
2022-12-22T22:17:12.193Z,2.37
2022-12-22T22:19:42.398Z,2.40
2022-12-22T22:22:10.403Z,2.83
2022-12-22T22:24:38.346Z,2.17
2022-12-22T22:27:06.591Z,2.13
2022-12-22T22:29:34.618Z,1.83
2022-12-22T22:32:03.874Z,2.27
2022-12-22T22:34:32.174Z,2.53
2022-12-22T22:37:00.045Z,3.03
2022-12-22T22:39:27.911Z,2.57
2022-12-22T22:41:56.426Z,2.50
2022-12-22T22:44:25.597Z,2.90
2022-12-22T22:46:54.682Z,2.60
2022-12-22T22:49:28.638Z,3.03
2022-12-22T22:51:57.259Z,3.23
2022-12-22T22:54:25.361Z,2.77
2022-12-22T22:56:55.804Z,2.50
2022-12-22T22:59:23.589Z,2.60
2022-12-22T23:01:51.454Z,2.73
2022-12-22T23:04:19.341Z,1.97
2022-12-22T23:06:48.965Z,2.70
2022-12-22T23:09:16.855Z,2.63
2022-12-22T23:11:45.662Z,2.33
2022-12-22T23:14:13.811Z,2.17
2022-12-22T23:16:41.882Z,2.43
2022-12-22T23:19:09.686Z,2.80
2022-12-22T23:21:37.715Z,1.90
2022-12-22T23:24:07.903Z,1.97
2022-12-22T23:26:35.817Z,1.83
2022-12-22T23:29:06.061Z,1.97
2022-12-22T23:31:34.447Z,2.10
2022-12-22T23:34:02.361Z,2.53
2022-12-22T23:36:30.223Z,1.60
2022-12-22T23:38:58.467Z,2.30
2022-12-22T23:41:27.915Z,1.67
2022-12-22T23:43:56.427Z,2.30
2022-12-22T23:46:24.780Z,2.40
2022-12-22T23:48:53.654Z,2.40
2022-12-22T23:51:22.656Z,2.03
2022-12-22T23:53:50.411Z,3.07
2022-12-22T23:56:18.296Z,2.33
2022-12-22T23:58:52.536Z,2.30
